sensor_id;sensor_type;location;lat;lon;timestamp;temperature;humidity
14521;DHT22;7347;50.844;4.490;2023-03-14T09:12:50;7.50;99.90
14521;DHT22;7347;50.844;4.490;2023-03-14T09:15:17;7.50;99.90
14521;DHT22;7347;50.844;4.490;2023-03-14T09:17:44;7.50;99.90
14521;DHT22;7347;50.844;4.490;2023-03-14T09:20:11;7.50;99.90
14521;DHT22;7347;50.844;4.490;2023-03-14T09:22:39;7.50;99.90
14521;DHT22;7347;50.844;4.490;2023-03-14T09:25:07;7.40;99.90
14521;DHT22;7347;50.844;4.490;2023-03-14T09:27:34;7.40;99.90
14521;DHT22;7347;50.844;4.490;2023-03-14T09:30:02;7.40;99.90
14521;DHT22;7347;50.844;4.490;2023-03-14T09:32:30;7.40;99.90
14521;DHT22;7347;50.844;4.490;2023-03-14T09:34:56;7.30;99.90
14521;DHT22;7347;50.844;4.490;2023-03-14T09:37:23;7.20;99.90
14521;DHT22;7347;50.844;4.490;2023-03-14T09:39:50;7.30;99.90
14521;DHT22;7347;50.844;4.490;2023-03-14T09:42:19;7.30;99.90
14521;DHT22;7347;50.844;4.490;2023-03-14T09:44:54;7.40;99.90
14521;DHT22;7347;50.844;4.490;2023-03-14T09:47:23;7.30;99.90
14521;DHT22;7347;50.844;4.490;2023-03-14T09:49:51;7.30;99.90
14521;DHT22;7347;50.844;4.490;2023-03-14T09:52:22;7.40;99.90
14521;DHT22;7347;50.844;4.490;2023-03-14T09:54:51;7.40;99.90
14521;DHT22;7347;50.844;4.490;2023-03-14T09:57:21;7.40;99.90
14521;DHT22;7347;50.844;4.490;2023-03-14T09:59:51;7.50;99.90
14521;DHT22;7347;50.844;4.490;2023-03-14T10:02:21;7.60;99.90
14521;DHT22;7347;50.844;4.490;2023-03-14T10:04:51;7.60;99.90
14521;DHT22;7347;50.844;4.490;2023-03-14T10:07:22;7.50;99.90
14521;DHT22;7347;50.844;4.490;2023-03-14T10:09:51;7.50;99.90
14521;DHT22;7347;50.844;4.490;2023-03-14T10:12:18;7.70;99.90
14521;DHT22;7347;50.844;4.490;2023-03-14T10:14:48;7.80;99.90
14521;DHT22;7347;50.844;4.490;2023-03-14T10:17:17;7.80;99.90
14521;DHT22;7347;50.844;4.490;2023-03-14T10:19:55;8.10;99.90
14521;DHT22;7347;50.844;4.490;2023-03-14T10:22:25;8.30;99.90
14521;DHT22;7347;50.844;4.490;2023-03-14T10:24:54;8.40;99.90
14521;DHT22;7347;50.844;4.490;2023-03-14T10:27:28;8.40;99.90
14521;DHT22;7347;50.844;4.490;2023-03-14T10:29:57;8.30;99.90
14521;DHT22;7347;50.844;4.490;2023-03-14T10:32:31;8.20;99.90
14521;DHT22;7347;50.844;4.490;2023-03-14T10:35:20;8.10;99.90
14521;DHT22;7347;50.844;4.490;2023-03-14T10:37:52;8.10;99.90
14521;DHT22;7347;50.844;4.490;2023-03-14T10:40:24;7.90;99.90
14521;DHT22;7347;50.844;4.490;2023-03-14T10:42:52;7.80;99.90
14521;DHT22;7347;50.844;4.490;2023-03-14T10:45:32;7.70;99.90
14521;DHT22;7347;50.844;4.490;2023-03-14T10:48:06;7.70;99.90
14521;DHT22;7347;50.844;4.490;2023-03-14T10:50:34;7.60;99.90
14521;DHT22;7347;50.844;4.490;2023-03-14T10:53:03;7.70;99.90
14521;DHT22;7347;50.844;4.490;2023-03-14T10:55:40;7.50;99.90
14521;DHT22;7347;50.844;4.490;2023-03-14T10:58:22;7.30;99.90
14521;DHT22;7347;50.844;4.490;2023-03-14T11:00:53;7.30;99.90
14521;DHT22;7347;50.844;4.490;2023-03-14T11:03:24;7.30;99.90
14521;DHT22;7347;50.844;4.490;2023-03-14T11:05:57;7.30;99.90
14521;DHT22;7347;50.844;4.490;2023-03-14T11:08:29;7.20;99.90
14521;DHT22;7347;50.844;4.490;2023-03-14T11:11:07;7.10;99.90
14521;DHT22;7347;50.844;4.490;2023-03-14T11:13:41;7.10;99.90
14521;DHT22;7347;50.844;4.490;2023-03-14T11:16:16;7.10;99.90
14521;DHT22;7347;50.844;4.490;2023-03-14T11:21:42;7.10;99.90
14521;DHT22;7347;50.844;4.490;2023-03-14T11:24:39;7.00;99.90
14521;DHT22;7347;50.844;4.490;2023-03-14T11:27:16;7.00;99.90
14521;DHT22;7347;50.844;4.490;2023-03-14T11:29:54;7.00;99.90
14521;DHT22;7347;50.844;4.490;2023-03-14T11:32:31;7.00;99.90
14521;DHT22;7347;50.844;4.490;2023-03-14T11:35:04;7.00;99.90
14521;DHT22;7347;50.844;4.490;2023-03-14T11:37:37;6.90;99.90
14521;DHT22;7347;50.844;4.490;2023-03-14T11:40:13;6.70;99.90
14521;DHT22;7347;50.844;4.490;2023-03-14T11:42:42;6.70;99.90
14521;DHT22;7347;50.844;4.490;2023-03-14T11:45:16;6.60;99.90
14521;DHT22;7347;50.844;4.490;2023-03-14T11:47:46;6.70;99.90
14521;DHT22;7347;50.844;4.490;2023-03-14T11:50:16;6.70;99.90
14521;DHT22;7347;50.844;4.490;2023-03-14T11:52:49;6.90;99.90
14521;DHT22;7347;50.844;4.490;2023-03-14T11:55:20;6.90;99.90
14521;DHT22;7347;50.844;4.490;2023-03-14T11:57:49;6.80;99.90
14521;DHT22;7347;50.844;4.490;2023-03-14T12:00:19;6.80;99.90
14521;DHT22;7347;50.844;4.490;2023-03-14T12:02:53;6.90;99.90
14521;DHT22;7347;50.844;4.490;2023-03-14T12:05:37;7.00;99.90
14521;DHT22;7347;50.844;4.490;2023-03-14T12:08:42;7.10;99.90
14521;DHT22;7347;50.844;4.490;2023-03-14T12:11:19;7.30;99.90
14521;DHT22;7347;50.844;4.490;2023-03-14T12:13:49;7.20;99.90
14521;DHT22;7347;50.844;4.490;2023-03-14T12:16:33;7.40;99.90
14521;DHT22;7347;50.844;4.490;2023-03-14T12:19:29;7.10;99.90
14521;DHT22;7347;50.844;4.490;2023-03-14T12:22:21;7.30;99.90
14521;DHT22;7347;50.844;4.490;2023-03-14T12:24:52;7.20;99.90
14521;DHT22;7347;50.844;4.490;2023-03-14T12:30:37;6.90;99.90
14521;DHT22;7347;50.844;4.490;2023-03-14T12:33:31;6.70;99.90
14521;DHT22;7347;50.844;4.490;2023-03-14T12:36:04;6.80;99.90
14521;DHT22;7347;50.844;4.490;2023-03-14T12:38:47;6.90;99.90
14521;DHT22;7347;50.844;4.490;2023-03-14T12:41:19;6.90;99.90
14521;DHT22;7347;50.844;4.490;2023-03-14T12:43:47;7.00;99.90
14521;DHT22;7347;50.844;4.490;2023-03-14T12:46:22;6.80;99.90
14521;DHT22;7347;50.844;4.490;2023-03-14T12:48:50;6.80;99.90
14521;DHT22;7347;50.844;4.490;2023-03-14T12:51:26;6.80;99.90
14521;DHT22;7347;50.844;4.490;2023-03-14T12:54:09;6.90;99.90
14521;DHT22;7347;50.844;4.490;2023-03-14T12:56:54;6.80;99.90
14521;DHT22;7347;50.844;4.490;2023-03-14T12:59:34;6.80;99.90
14521;DHT22;7347;50.844;4.490;2023-03-14T13:02:12;6.90;99.90
14521;DHT22;7347;50.844;4.490;2023-03-14T13:04:44;6.80;99.90
14521;DHT22;7347;50.844;4.490;2023-03-14T13:07:12;6.80;99.90
14521;DHT22;7347;50.844;4.490;2023-03-14T13:10:00;6.80;99.90
14521;DHT22;7347;50.844;4.490;2023-03-14T13:12:37;6.90;99.90
14521;DHT22;7347;50.844;4.490;2023-03-14T13:15:17;6.90;99.90
14521;DHT22;7347;50.844;4.490;2023-03-14T13:17:46;7.00;99.90
14521;DHT22;7347;50.844;4.490;2023-03-14T13:20:18;7.00;99.90
14521;DHT22;7347;50.844;4.490;2023-03-14T13:22:48;7.20;99.90
14521;DHT22;7347;50.844;4.490;2023-03-14T13:25:16;7.20;99.90
14521;DHT22;7347;50.844;4.490;2023-03-14T13:27:45;7.20;99.90
14521;DHT22;7347;50.844;4.490;2023-03-14T13:30:18;7.20;99.90
14521;DHT22;7347;50.844;4.490;2023-03-14T13:32:47;7.10;99.90
14521;DHT22;7347;50.844;4.490;2023-03-14T13:35:16;7.10;99.90
14521;DHT22;7347;50.844;4.490;2023-03-14T13:37:43;7.10;99.90
14521;DHT22;7347;50.844;4.490;2023-03-14T13:40:20;7.10;99.90
14521;DHT22;7347;50.844;4.490;2023-03-14T13:42:49;7.00;99.90
14521;DHT22;7347;50.844;4.490;2023-03-14T13:45:16;7.00;99.90
14521;DHT22;7347;50.844;4.490;2023-03-14T13:47:42;7.10;99.90
14521;DHT22;7347;50.844;4.490;2023-03-14T13:50:15;7.20;99.90
14521;DHT22;7347;50.844;4.490;2023-03-14T13:52:43;7.30;99.90
14521;DHT22;7347;50.844;4.490;2023-03-14T13:55:15;7.40;99.90
14521;DHT22;7347;50.844;4.490;2023-03-14T13:57:45;7.40;99.90
14521;DHT22;7347;50.844;4.490;2023-03-14T14:00:22;7.40;99.90
14521;DHT22;7347;50.844;4.490;2023-03-14T14:02:53;7.60;99.90
14521;DHT22;7347;50.844;4.490;2023-03-14T14:05:20;7.70;99.90
14521;DHT22;7347;50.844;4.490;2023-03-14T14:07:49;7.70;99.90
14521;DHT22;7347;50.844;4.490;2023-03-14T14:10:17;7.70;99.90
14521;DHT22;7347;50.844;4.490;2023-03-14T14:12:48;7.70;99.90
14521;DHT22;7347;50.844;4.490;2023-03-14T14:15:21;7.90;99.90
14521;DHT22;7347;50.844;4.490;2023-03-14T14:17:51;7.90;99.90
14521;DHT22;7347;50.844;4.490;2023-03-14T14:20:23;7.90;99.90
14521;DHT22;7347;50.844;4.490;2023-03-14T14:22:57;7.90;99.90
14521;DHT22;7347;50.844;4.490;2023-03-14T14:25:25;7.70;99.90
14521;DHT22;7347;50.844;4.490;2023-03-14T14:27:52;7.70;99.90
14521;DHT22;7347;50.844;4.490;2023-03-14T14:30:29;7.70;99.90
14521;DHT22;7347;50.844;4.490;2023-03-14T14:33:11;8.00;99.90
14521;DHT22;7347;50.844;4.490;2023-03-14T14:35:40;8.40;99.90
14521;DHT22;7347;50.844;4.490;2023-03-14T14:38:12;8.60;99.90
14521;DHT22;7347;50.844;4.490;2023-03-14T14:40:46;8.90;99.90
14521;DHT22;7347;50.844;4.490;2023-03-14T14:43:17;8.90;99.90
14521;DHT22;7347;50.844;4.490;2023-03-14T14:45:48;8.90;99.90
14521;DHT22;7347;50.844;4.490;2023-03-14T14:48:17;8.60;99.90
14521;DHT22;7347;50.844;4.490;2023-03-14T14:50:59;8.10;99.90
14521;DHT22;7347;50.844;4.490;2023-03-14T14:53:29;7.90;99.90
14521;DHT22;7347;50.844;4.490;2023-03-14T14:55:58;7.70;99.90
14521;DHT22;7347;50.844;4.490;2023-03-14T14:58:26;7.40;99.90
14521;DHT22;7347;50.844;4.490;2023-03-14T15:00:57;7.10;99.90
14521;DHT22;7347;50.844;4.490;2023-03-14T15:03:27;6.70;99.90
14521;DHT22;7347;50.844;4.490;2023-03-14T15:05:55;6.40;99.90
14521;DHT22;7347;50.844;4.490;2023-03-14T15:08:24;6.20;99.90
14521;DHT22;7347;50.844;4.490;2023-03-14T15:10:51;6.10;99.90
14521;DHT22;7347;50.844;4.490;2023-03-14T15:13:17;6.00;99.90
14521;DHT22;7347;50.844;4.490;2023-03-14T15:15:44;6.00;99.90
14521;DHT22;7347;50.844;4.490;2023-03-14T15:18:14;6.10;99.90
14521;DHT22;7347;50.844;4.490;2023-03-14T15:20:42;6.30;99.90
14521;DHT22;7347;50.844;4.490;2023-03-14T15:23:15;6.40;99.90
14521;DHT22;7347;50.844;4.490;2023-03-14T15:25:43;6.60;99.90
14521;DHT22;7347;50.844;4.490;2023-03-14T15:28:14;6.90;99.90
14521;DHT22;7347;50.844;4.490;2023-03-14T15:30:42;7.10;99.90
14521;DHT22;7347;50.844;4.490;2023-03-14T15:33:09;7.30;99.90
14521;DHT22;7347;50.844;4.490;2023-03-14T15:35:41;7.50;99.90
14521;DHT22;7347;50.844;4.490;2023-03-14T15:38:10;7.50;99.90
14521;DHT22;7347;50.844;4.490;2023-03-14T15:40:39;7.70;99.90
14521;DHT22;7347;50.844;4.490;2023-03-14T15:43:07;7.80;99.90
14521;DHT22;7347;50.844;4.490;2023-03-14T15:45:34;7.80;99.90
14521;DHT22;7347;50.844;4.490;2023-03-14T15:48:00;7.80;99.90
14521;DHT22;7347;50.844;4.490;2023-03-14T15:50:27;8.10;99.90
14521;DHT22;7347;50.844;4.490;2023-03-14T15:52:55;8.20;99.90
14521;DHT22;7347;50.844;4.490;2023-03-14T15:55:22;8.20;99.90
14521;DHT22;7347;50.844;4.490;2023-03-14T15:57:49;8.20;99.90
14521;DHT22;7347;50.844;4.490;2023-03-14T16:00:18;8.00;99.90
14521;DHT22;7347;50.844;4.490;2023-03-14T16:02:47;8.00;99.90
14521;DHT22;7347;50.844;4.490;2023-03-14T16:05:14;8.00;99.90
14521;DHT22;7347;50.844;4.490;2023-03-14T16:07:41;8.00;99.90
14521;DHT22;7347;50.844;4.490;2023-03-14T16:10:11;8.10;99.90
14521;DHT22;7347;50.844;4.490;2023-03-14T16:12:39;8.00;99.90
14521;DHT22;7347;50.844;4.490;2023-03-14T16:15:07;7.90;99.90
14521;DHT22;7347;50.844;4.490;2023-03-14T16:17:34;7.90;99.90
14521;DHT22;7347;50.844;4.490;2023-03-14T16:20:03;7.80;99.90
14521;DHT22;7347;50.844;4.490;2023-03-14T16:22:30;7.70;99.90
14521;DHT22;7347;50.844;4.490;2023-03-14T16:25:00;7.80;99.90
14521;DHT22;7347;50.844;4.490;2023-03-14T16:27:28;7.70;99.90
14521;DHT22;7347;50.844;4.490;2023-03-14T16:29:56;7.70;99.90
14521;DHT22;7347;50.844;4.490;2023-03-14T16:32:23;7.70;99.90
14521;DHT22;7347;50.844;4.490;2023-03-14T16:34:49;7.50;99.90
14521;DHT22;7347;50.844;4.490;2023-03-14T16:37:16;7.30;99.90
14521;DHT22;7347;50.844;4.490;2023-03-14T16:39:46;7.40;99.90
14521;DHT22;7347;50.844;4.490;2023-03-14T16:42:13;7.60;99.90
14521;DHT22;7347;50.844;4.490;2023-03-14T16:44:41;7.60;99.90
14521;DHT22;7347;50.844;4.490;2023-03-14T16:47:09;7.50;99.90
14521;DHT22;7347;50.844;4.490;2023-03-14T16:49:36;7.50;99.90
14521;DHT22;7347;50.844;4.490;2023-03-14T16:52:03;7.50;99.90
14521;DHT22;7347;50.844;4.490;2023-03-14T16:54:30;7.50;99.90
14521;DHT22;7347;50.844;4.490;2023-03-14T16:56:57;7.60;99.90
14521;DHT22;7347;50.844;4.490;2023-03-14T16:59:24;7.60;99.90
14521;DHT22;7347;50.844;4.490;2023-03-14T17:01:54;7.50;99.90
14521;DHT22;7347;50.844;4.490;2023-03-14T17:04:21;7.70;99.90
14521;DHT22;7347;50.844;4.490;2023-03-14T17:06:49;7.60;99.90
14521;DHT22;7347;50.844;4.490;2023-03-14T17:09:17;7.70;99.90
14521;DHT22;7347;50.844;4.490;2023-03-14T17:11:43;7.60;99.90
14521;DHT22;7347;50.844;4.490;2023-03-14T17:14:10;7.50;99.90
14521;DHT22;7347;50.844;4.490;2023-03-14T17:16:37;7.40;99.90
14521;DHT22;7347;50.844;4.490;2023-03-14T17:19:05;7.30;99.90
14521;DHT22;7347;50.844;4.490;2023-03-14T17:21:32;7.30;99.90
14521;DHT22;7347;50.844;4.490;2023-03-14T17:23:59;7.30;99.90
14521;DHT22;7347;50.844;4.490;2023-03-14T17:26:25;7.20;99.90
14521;DHT22;7347;50.844;4.490;2023-03-14T17:28:53;7.10;99.90
14521;DHT22;7347;50.844;4.490;2023-03-14T17:31:20;7.10;99.90
14521;DHT22;7347;50.844;4.490;2023-03-14T17:33:48;7.00;99.90
14521;DHT22;7347;50.844;4.490;2023-03-14T17:36:18;6.90;99.90
14521;DHT22;7347;50.844;4.490;2023-03-14T17:38:45;7.00;99.90
14521;DHT22;7347;50.844;4.490;2023-03-14T17:41:13;6.90;99.90
14521;DHT22;7347;50.844;4.490;2023-03-14T17:43:41;6.80;99.90
14521;DHT22;7347;50.844;4.490;2023-03-14T17:46:09;6.70;99.90
14521;DHT22;7347;50.844;4.490;2023-03-14T17:48:39;6.80;99.90
14521;DHT22;7347;50.844;4.490;2023-03-14T17:51:06;7.00;99.90
14521;DHT22;7347;50.844;4.490;2023-03-14T17:53:34;7.00;99.90
14521;DHT22;7347;50.844;4.490;2023-03-14T17:56:02;7.00;99.90
14521;DHT22;7347;50.844;4.490;2023-03-14T17:58:30;7.10;99.90
14521;DHT22;7347;50.844;4.490;2023-03-14T18:01:07;7.00;99.90
14521;DHT22;7347;50.844;4.490;2023-03-14T18:03:34;7.00;99.90
14521;DHT22;7347;50.844;4.490;2023-03-14T18:06:03;6.90;99.90
14521;DHT22;7347;50.844;4.490;2023-03-14T18:08:30;7.00;99.90
14521;DHT22;7347;50.844;4.490;2023-03-14T18:10:58;6.90;99.90
14521;DHT22;7347;50.844;4.490;2023-03-14T18:13:25;6.80;99.90
14521;DHT22;7347;50.844;4.490;2023-03-14T18:15:52;6.80;99.90
14521;DHT22;7347;50.844;4.490;2023-03-14T18:18:19;6.80;99.90
14521;DHT22;7347;50.844;4.490;2023-03-14T18:20:48;6.70;99.90
14521;DHT22;7347;50.844;4.490;2023-03-14T18:23:15;6.60;99.90
14521;DHT22;7347;50.844;4.490;2023-03-14T18:25:42;6.50;99.90
14521;DHT22;7347;50.844;4.490;2023-03-14T18:28:10;6.40;99.90
14521;DHT22;7347;50.844;4.490;2023-03-14T18:30:37;6.40;99.90
14521;DHT22;7347;50.844;4.490;2023-03-14T18:33:04;6.40;99.90
14521;DHT22;7347;50.844;4.490;2023-03-14T18:35:31;6.30;99.90
14521;DHT22;7347;50.844;4.490;2023-03-14T18:37:57;6.20;99.90
14521;DHT22;7347;50.844;4.490;2023-03-14T18:40:24;6.10;99.90
14521;DHT22;7347;50.844;4.490;2023-03-14T18:42:51;6.10;99.90
14521;DHT22;7347;50.844;4.490;2023-03-14T18:45:19;5.90;99.90
14521;DHT22;7347;50.844;4.490;2023-03-14T18:47:46;6.00;99.90
14521;DHT22;7347;50.844;4.490;2023-03-14T18:50:13;6.00;99.90
14521;DHT22;7347;50.844;4.490;2023-03-14T18:52:39;5.80;99.90
14521;DHT22;7347;50.844;4.490;2023-03-14T18:55:07;5.70;99.90
14521;DHT22;7347;50.844;4.490;2023-03-14T18:57:34;5.60;99.90
14521;DHT22;7347;50.844;4.490;2023-03-14T19:00:01;5.60;99.90
14521;DHT22;7347;50.844;4.490;2023-03-14T19:02:32;5.60;99.90
14521;DHT22;7347;50.844;4.490;2023-03-14T19:04:59;5.60;99.90
14521;DHT22;7347;50.844;4.490;2023-03-14T19:07:26;5.60;99.90
14521;DHT22;7347;50.844;4.490;2023-03-14T19:09:53;5.70;99.90
14521;DHT22;7347;50.844;4.490;2023-03-14T19:12:20;5.80;99.90
14521;DHT22;7347;50.844;4.490;2023-03-14T19:14:47;5.90;99.90
14521;DHT22;7347;50.844;4.490;2023-03-14T19:17:13;5.90;99.90
14521;DHT22;7347;50.844;4.490;2023-03-14T19:19:41;6.00;99.90
14521;DHT22;7347;50.844;4.490;2023-03-14T19:22:08;6.10;99.90
14521;DHT22;7347;50.844;4.490;2023-03-14T19:24:36;6.20;99.90
14521;DHT22;7347;50.844;4.490;2023-03-14T19:27:03;6.30;99.90
14521;DHT22;7347;50.844;4.490;2023-03-14T19:29:30;6.20;99.90
14521;DHT22;7347;50.844;4.490;2023-03-14T19:32:01;6.20;99.90
14521;DHT22;7347;50.844;4.490;2023-03-14T19:34:28;6.20;99.90
14521;DHT22;7347;50.844;4.490;2023-03-14T19:36:57;6.20;99.90
14521;DHT22;7347;50.844;4.490;2023-03-14T19:39:24;6.20;99.90
14521;DHT22;7347;50.844;4.490;2023-03-14T19:41:51;6.30;99.90
14521;DHT22;7347;50.844;4.490;2023-03-14T19:44:22;6.10;99.90
14521;DHT22;7347;50.844;4.490;2023-03-14T19:46:49;6.00;99.90
14521;DHT22;7347;50.844;4.490;2023-03-14T19:49:16;5.80;99.90
14521;DHT22;7347;50.844;4.490;2023-03-14T19:51:42;5.80;99.90
14521;DHT22;7347;50.844;4.490;2023-03-14T19:54:11;5.60;99.90
14521;DHT22;7347;50.844;4.490;2023-03-14T19:56:38;5.50;99.90
14521;DHT22;7347;50.844;4.490;2023-03-14T19:59:05;5.40;99.90
14521;DHT22;7347;50.844;4.490;2023-03-14T20:01:33;5.30;99.90
14521;DHT22;7347;50.844;4.490;2023-03-14T20:04:00;5.20;99.90
14521;DHT22;7347;50.844;4.490;2023-03-14T20:06:29;5.10;99.90
14521;DHT22;7347;50.844;4.490;2023-03-14T20:08:57;5.10;99.90
14521;DHT22;7347;50.844;4.490;2023-03-14T20:11:25;5.00;99.90
14521;DHT22;7347;50.844;4.490;2023-03-14T20:13:52;4.90;99.90
14521;DHT22;7347;50.844;4.490;2023-03-14T20:16:19;4.80;99.90
14521;DHT22;7347;50.844;4.490;2023-03-14T20:18:45;4.80;99.90
14521;DHT22;7347;50.844;4.490;2023-03-14T20:21:13;4.80;99.90
14521;DHT22;7347;50.844;4.490;2023-03-14T20:23:40;4.80;99.90
14521;DHT22;7347;50.844;4.490;2023-03-14T20:26:08;4.70;99.90
14521;DHT22;7347;50.844;4.490;2023-03-14T20:28:36;4.60;99.90
14521;DHT22;7347;50.844;4.490;2023-03-14T20:31:05;4.70;99.90
14521;DHT22;7347;50.844;4.490;2023-03-14T20:33:32;4.70;99.90
14521;DHT22;7347;50.844;4.490;2023-03-14T20:36:01;4.60;99.90
14521;DHT22;7347;50.844;4.490;2023-03-14T20:38:28;4.60;99.90
14521;DHT22;7347;50.844;4.490;2023-03-14T20:40:55;4.70;99.90
14521;DHT22;7347;50.844;4.490;2023-03-14T20:43:22;4.80;99.90
14521;DHT22;7347;50.844;4.490;2023-03-14T20:45:55;4.80;99.90
14521;DHT22;7347;50.844;4.490;2023-03-14T20:48:23;4.70;99.90
14521;DHT22;7347;50.844;4.490;2023-03-14T20:50:50;4.60;99.90
14521;DHT22;7347;50.844;4.490;2023-03-14T20:53:17;4.60;99.90
14521;DHT22;7347;50.844;4.490;2023-03-14T20:55:44;4.60;99.90
14521;DHT22;7347;50.844;4.490;2023-03-14T20:58:11;4.60;99.90
14521;DHT22;7347;50.844;4.490;2023-03-14T21:00:39;4.60;99.90
14521;DHT22;7347;50.844;4.490;2023-03-14T21:03:07;4.60;99.90
14521;DHT22;7347;50.844;4.490;2023-03-14T21:05:35;4.60;99.90
14521;DHT22;7347;50.844;4.490;2023-03-14T21:08:02;4.40;99.90
14521;DHT22;7347;50.844;4.490;2023-03-14T21:10:29;4.40;99.90
14521;DHT22;7347;50.844;4.490;2023-03-14T21:12:56;4.40;99.90
14521;DHT22;7347;50.844;4.490;2023-03-14T21:15:23;4.40;99.90
14521;DHT22;7347;50.844;4.490;2023-03-14T21:17:50;4.30;99.90
14521;DHT22;7347;50.844;4.490;2023-03-14T21:20:20;4.20;99.90
14521;DHT22;7347;50.844;4.490;2023-03-14T21:22:50;4.30;99.90
14521;DHT22;7347;50.844;4.490;2023-03-14T21:25:17;4.30;99.90
14521;DHT22;7347;50.844;4.490;2023-03-14T21:27:44;4.30;99.90
14521;DHT22;7347;50.844;4.490;2023-03-14T21:30:11;4.30;99.90
14521;DHT22;7347;50.844;4.490;2023-03-14T21:32:38;4.40;99.90
14521;DHT22;7347;50.844;4.490;2023-03-14T21:35:06;4.40;99.90
14521;DHT22;7347;50.844;4.490;2023-03-14T21:37:34;4.20;99.90
14521;DHT22;7347;50.844;4.490;2023-03-14T21:40:01;4.10;99.90
14521;DHT22;7347;50.844;4.490;2023-03-14T21:42:28;3.90;99.90
14521;DHT22;7347;50.844;4.490;2023-03-14T21:44:55;3.90;99.90
14521;DHT22;7347;50.844;4.490;2023-03-14T21:47:22;3.90;99.90
14521;DHT22;7347;50.844;4.490;2023-03-14T21:49:49;3.90;99.90
14521;DHT22;7347;50.844;4.490;2023-03-14T21:52:16;3.90;99.90
14521;DHT22;7347;50.844;4.490;2023-03-14T21:54:44;3.90;99.90
14521;DHT22;7347;50.844;4.490;2023-03-14T21:57:12;3.80;99.90
14521;DHT22;7347;50.844;4.490;2023-03-14T21:59:41;3.80;99.90
14521;DHT22;7347;50.844;4.490;2023-03-14T22:02:12;3.80;99.90
14521;DHT22;7347;50.844;4.490;2023-03-14T22:04:39;3.80;99.90
14521;DHT22;7347;50.844;4.490;2023-03-14T22:07:08;3.80;99.90
14521;DHT22;7347;50.844;4.490;2023-03-14T22:09:37;3.70;99.90
14521;DHT22;7347;50.844;4.490;2023-03-14T22:12:06;3.80;99.90
14521;DHT22;7347;50.844;4.490;2023-03-14T22:14:33;3.80;99.90
14521;DHT22;7347;50.844;4.490;2023-03-14T22:16:59;3.80;99.90
14521;DHT22;7347;50.844;4.490;2023-03-14T22:19:28;3.80;99.90
14521;DHT22;7347;50.844;4.490;2023-03-14T22:21:55;3.80;99.90
14521;DHT22;7347;50.844;4.490;2023-03-14T22:24:22;3.80;99.90
14521;DHT22;7347;50.844;4.490;2023-03-14T22:26:50;3.90;99.90
14521;DHT22;7347;50.844;4.490;2023-03-14T22:29:19;3.90;99.90
14521;DHT22;7347;50.844;4.490;2023-03-14T22:31:46;3.90;99.90
14521;DHT22;7347;50.844;4.490;2023-03-14T22:34:13;4.00;99.90
14521;DHT22;7347;50.844;4.490;2023-03-14T22:36:40;4.00;99.90
14521;DHT22;7347;50.844;4.490;2023-03-14T22:39:07;4.00;99.90
14521;DHT22;7347;50.844;4.490;2023-03-14T22:41:34;4.00;99.90
14521;DHT22;7347;50.844;4.490;2023-03-14T22:44:01;4.00;99.90
14521;DHT22;7347;50.844;4.490;2023-03-14T22:46:29;4.10;99.90
14521;DHT22;7347;50.844;4.490;2023-03-14T22:48:56;4.20;99.90
14521;DHT22;7347;50.844;4.490;2023-03-14T22:51:23;4.30;99.90
14521;DHT22;7347;50.844;4.490;2023-03-14T22:53:49;4.30;99.90
14521;DHT22;7347;50.844;4.490;2023-03-14T22:56:16;4.30;99.90
14521;DHT22;7347;50.844;4.490;2023-03-14T22:58:43;4.40;99.90
14521;DHT22;7347;50.844;4.490;2023-03-14T23:01:10;4.50;99.90
14521;DHT22;7347;50.844;4.490;2023-03-14T23:03:38;4.50;99.90
14521;DHT22;7347;50.844;4.490;2023-03-14T23:06:05;4.50;99.90
14521;DHT22;7347;50.844;4.490;2023-03-14T23:08:33;4.60;99.90
14521;DHT22;7347;50.844;4.490;2023-03-14T23:11:01;4.70;99.90
14521;DHT22;7347;50.844;4.490;2023-03-14T23:13:28;4.80;99.90
14521;DHT22;7347;50.844;4.490;2023-03-14T23:15:55;4.80;99.90
14521;DHT22;7347;50.844;4.490;2023-03-14T23:18:22;4.80;99.90
14521;DHT22;7347;50.844;4.490;2023-03-14T23:20:53;4.80;99.90
14521;DHT22;7347;50.844;4.490;2023-03-14T23:23:29;4.80;99.90
14521;DHT22;7347;50.844;4.490;2023-03-14T23:25:56;4.90;99.90
14521;DHT22;7347;50.844;4.490;2023-03-14T23:28:23;4.90;99.90
14521;DHT22;7347;50.844;4.490;2023-03-14T23:30:53;4.90;99.90
14521;DHT22;7347;50.844;4.490;2023-03-14T23:33:20;4.90;99.90
14521;DHT22;7347;50.844;4.490;2023-03-14T23:35:47;4.90;99.90
14521;DHT22;7347;50.844;4.490;2023-03-14T23:38:15;4.90;99.90
14521;DHT22;7347;50.844;4.490;2023-03-14T23:40:42;4.90;99.90
14521;DHT22;7347;50.844;4.490;2023-03-14T23:43:09;5.00;99.90
14521;DHT22;7347;50.844;4.490;2023-03-14T23:45:36;5.00;99.90
14521;DHT22;7347;50.844;4.490;2023-03-14T23:48:03;5.00;99.90
14521;DHT22;7347;50.844;4.490;2023-03-14T23:50:30;5.00;99.90
14521;DHT22;7347;50.844;4.490;2023-03-14T23:53:00;5.00;99.90
14521;DHT22;7347;50.844;4.490;2023-03-14T23:55:28;5.00;99.90
14521;DHT22;7347;50.844;4.490;2023-03-14T23:57:55;5.00;99.90
